Terminal Aerodrome Forecast
Issued by NWS

Home | Current Version | Previous Version | Text Only | Print | Product List | Glossary On
Versions: 1 2 3 4 5 6 7 8 9 10 11 12 13 14 15 16 17 18
463
FTUS43 KMQT 240357 AAA
TAFCMX
TAF AMD
KCMX 240357Z 2404/2424 10006KT P6SM VCSH OVC040
      TEMPO 2404/2406 5SM -SHSN
     FM240800 09006KT P6SM OVC040
     FM241300 10011KT P6SM OVC060
     FM241500 10016G25KT P6SM BKN100=

USA.gov is the U.S. government's official web portal to all federal, state and local government web resources and services.